Time;durP1;ratioP1;P1;durP2;ratioP2;P2;SDS_P1;SDS_P2;PMS_P1;PMS_P2;Temp;Humidity;BMP_temperature;BMP_pressure;BME280_temperature;BME280_humidity;BME280_pressure;Samples;Min_cycle;Max_cycle;Signal;HPM_P1;HPM_P2
2023/12/15 00:02:12;;;;;;;;;;;;;;;10.36;61.63;101702.38;5002402;28;6796;-77
2023/12/15 00:04:38;;;;;;;;;;;;;;;10.36;61.51;101705.84;4998643;28;7174;-76
2023/12/15 00:07:03;;;;;;;;;;;;;;;10.39;61.54;101707.75;5000176;28;6804;-78
2023/12/15 00:09:29;;;;;;;;;;;;;;;10.41;61.39;101706.16;4996819;28;6788;-76
2023/12/15 00:11:54;;;;;;;;;;;;;;;10.45;61.41;101712.44;5002681;28;7283;-77
2023/12/15 00:14:19;;;;;;;;;;;;;;;10.47;61.57;101709.16;4981670;28;6985;-77
2023/12/15 00:16:45;;;;;;;;;;;;;;;10.49;61.10;101715.31;4980632;28;6775;-76
2023/12/15 00:19:11;;;;;;;;;;;;;;;10.52;61.29;101712.94;4966265;28;7146;-76
2023/12/15 00:21:37;;;;;;;;;;;;;;;10.55;61.16;101717.41;4982780;28;7242;-76
2023/12/15 00:24:04;;;;;;;;;;;;;;;10.56;61.15;101721.75;4953213;28;7266;-76
2023/12/15 00:26:30;;;;;;;;;;;;;;;10.59;60.99;101721.09;4981750;28;7316;-76
2023/12/15 00:28:55;;;;;;;;;;;;;;;10.59;61.10;101721.94;4983721;28;7148;-76
2023/12/15 00:31:21;;;;;;;;;;;;;;;10.60;61.37;101725.41;4980654;28;6796;-76
2023/12/15 00:33:46;;;;;;;;;;;;;;;10.61;61.08;101730.63;4991416;28;7166;-76
2023/12/15 00:36:12;;;;;;;;;;;;;;;10.61;61.15;101725.50;4965764;28;7030;-76
2023/12/15 00:38:37;;;;;;;;;;;;;;;10.63;61.08;101731.66;4982190;28;6784;-76
2023/12/15 00:41:03;;;;;;;;;;;;;;;10.63;60.96;101729.09;4975171;28;6944;-77
2023/12/15 00:43:28;;;;;;;;;;;;;;;10.64;60.96;101725.75;4969039;28;7876;-76
2023/12/15 00:45:54;;;;;;;;;;;;;;;10.65;60.93;101735.22;4972924;28;6804;-76
2023/12/15 00:48:19;;;;;;;;;;;;;;;10.66;61.20;101736.97;4978597;28;6784;-76
2023/12/15 00:50:45;;;;;;;;;;;;;;;10.65;60.96;101735.22;4973923;28;8459;-76
2023/12/15 00:53:10;;;;;;;;;;;;;;;10.66;60.90;101736.97;4965585;28;7324;-76
2023/12/15 00:55:35;;;;;;;;;;;;;;;10.64;61.22;101738.56;4969621;28;6800;-76
2023/12/15 00:58:01;;;;;;;;;;;;;;;10.62;60.65;101742.69;4972774;28;6858;-76
2023/12/15 01:00:26;;;;;;;;;;;;;;;10.59;61.18;101752.72;4974212;28;7226;-76
2023/12/15 01:02:52;;;;;;;;;;;;;;;10.58;61.04;101744.94;4976450;28;6971;-77
2023/12/15 01:05:17;;;;;;;;;;;;;;;10.55;60.79;101745.63;4961794;28;7013;-77
2023/12/15 01:07:44;;;;;;;;;;;;;;;10.54;60.86;101748.97;4977727;28;7825;-76
2023/12/15 01:10:09;;;;;;;;;;;;;;;10.51;61.29;101748.72;4975013;28;6867;-76
2023/12/15 01:12:35;;;;;;;;;;;;;;;10.49;61.38;101760.56;4978933;28;9201;-77
2023/12/15 01:15:00;;;;;;;;;;;;;;;10.45;61.36;101767.13;4996148;28;6866;-77
2023/12/15 01:17:25;;;;;;;;;;;;;;;10.45;61.62;101771.38;4954956;28;6927;-76
2023/12/15 01:19:51;;;;;;;;;;;;;;;10.45;60.91;101774.81;4973414;28;6872;-76
2023/12/15 01:22:16;;;;;;;;;;;;;;;10.45;61.00;101779.94;4981952;28;7123;-76
2023/12/15 01:24:42;;;;;;;;;;;;;;;10.44;61.25;101772.16;4973662;28;6784;-76
2023/12/15 01:27:07;;;;;;;;;;;;;;;10.41;61.45;101760.91;4977742;28;7229;-74
2023/12/15 01:29:33;;;;;;;;;;;;;;;10.40;61.33;101769.34;4979865;28;8811;-75
2023/12/15 01:31:58;;;;;;;;;;;;;;;10.39;61.58;101772.69;4978074;28;6994;-75
2023/12/15 01:34:24;;;;;;;;;;;;;;;10.39;61.55;101769.25;4981334;28;7128;-74
2023/12/15 01:36:49;;;;;;;;;;;;;;;10.38;61.23;101767.44;4972444;28;6938;-74
2023/12/15 01:39:15;;;;;;;;;;;;;;;10.39;61.26;101769.25;4976593;28;7225;-74
2023/12/15 01:41:40;;;;;;;;;;;;;;;10.39;61.34;101766.69;4976305;28;6804;-77
2023/12/15 01:44:06;;;;;;;;;;;;;;;10.40;61.75;101777.03;4972244;28;7194;-74
2023/12/15 01:46:31;;;;;;;;;;;;;;;10.40;61.59;101777.03;4975734;28;6792;-75
2023/12/15 01:48:57;;;;;;;;;;;;;;;10.45;62.28;101779.06;4980925;28;7187;-76
2023/12/15 01:51:23;;;;;;;;;;;;;;;10.46;62.17;101783.41;4982915;28;7065;-73
2023/12/15 01:53:48;;;;;;;;;;;;;;;10.50;61.12;101787.97;4976808;28;7151;-74
2023/12/15 01:56:14;;;;;;;;;;;;;;;10.52;62.14;101792.44;4956630;28;6993;-75
2023/12/15 01:58:39;;;;;;;;;;;;;;;10.56;61.98;101796.97;4964802;28;7297;-76
2023/12/15 02:01:07;;;;;;;;;;;;;;;10.59;61.95;101792.88;4980534;28;6804;-74
2023/12/15 02:03:32;;;;;;;;;;;;;;;10.61;61.51;101804.97;4962235;28;6987;-75
2023/12/15 02:05:58;;;;;;;;;;;;;;;10.65;61.55;101806.09;4975415;28;6788;-74
2023/12/15 02:08:23;;;;;;;;;;;;;;;10.66;61.82;101808.78;4978933;28;6889;-74
2023/12/15 02:10:48;;;;;;;;;;;;;;;10.69;61.70;101808.13;4954675;28;8800;-77
2023/12/15 02:13:14;;;;;;;;;;;;;;;10.71;61.82;101809.09;4975011;28;6952;-74
2023/12/15 02:15:39;;;;;;;;;;;;;;;10.74;61.69;101811.88;4989372;28;6964;-74
2023/12/15 02:18:05;;;;;;;;;;;;;;;10.72;61.29;101804.84;4967527;28;7255;-75
2023/12/15 02:20:30;;;;;;;;;;;;;;;10.72;61.68;101805.75;4966423;28;6963;-75
2023/12/15 02:22:57;;;;;;;;;;;;;;;10.72;61.39;101810.88;4973045;28;7184;-74
2023/12/15 02:25:23;;;;;;;;;;;;;;;10.72;61.66;101813.44;4982680;28;7231;-75
2023/12/15 02:27:49;;;;;;;;;;;;;;;10.73;61.49;101824.59;4958068;28;7155;-77
2023/12/15 02:30:14;;;;;;;;;;;;;;;10.70;61.58;101813.31;4966621;28;6982;-74
2023/12/15 02:32:39;;;;;;;;;;;;;;;10.70;61.84;101813.31;4992686;28;6836;-74
2023/12/15 02:35:05;;;;;;;;;;;;;;;10.70;61.87;101815.88;4979626;28;6784;-74
2023/12/15 02:37:30;;;;;;;;;;;;;;;10.72;61.49;101825.34;4998533;28;7048;-77
2023/12/15 02:39:56;;;;;;;;;;;;;;;10.71;61.70;101819.38;5007464;28;6807;-77
2023/12/15 02:42:21;;;;;;;;;;;;;;;10.73;62.23;101816.91;5002296;28;7022;-76
2023/12/15 02:44:47;;;;;;;;;;;;;;;10.76;62.00;101817.13;5006591;28;6929;-78
2023/12/15 02:47:12;;;;;;;;;;;;;;;10.78;61.85;101821.56;5000935;28;7188;-76
2023/12/15 02:49:41;;;;;;;;;;;;;;;10.80;61.51;101812.31;5003344;28;6855;-76
2023/12/15 02:52:07;;;;;;;;;;;;;;;10.82;61.54;101812.44;4980902;28;7213;-76
2023/12/15 02:54:33;;;;;;;;;;;;;;;10.82;61.84;101812.44;5000161;28;6994;-77
2023/12/15 02:56:59;;;;;;;;;;;;;;;10.85;61.90;101820.31;4998702;28;6820;-77
2023/12/15 02:59:24;;;;;;;;;;;;;;;10.88;62.04;101820.53;5006643;28;6779;-76
2023/12/15 03:01:50;;;;;;;;;;;;;;;10.90;61.83;101818.94;4978919;28;10048;-76
2023/12/15 03:04:15;;;;;;;;;;;;;;;10.90;61.63;101824.09;4992600;28;6775;-77
2023/12/15 03:06:41;;;;;;;;;;;;;;;10.91;61.94;101825.91;4995231;28;6784;-78
2023/12/15 03:09:07;;;;;;;;;;;;;;;10.92;61.45;101824.19;5003520;28;6828;-76
2023/12/15 03:11:32;;;;;;;;;;;;;;;10.92;62.06;101831.91;4999621;28;6784;-77
2023/12/15 03:13:58;;;;;;;;;;;;;;;10.93;62.04;101842.28;5005658;28;7224;-77
2023/12/15 03:16:26;;;;;;;;;;;;;;;10.94;62.33;101844.06;5007523;28;6772;-77
2023/12/15 03:18:52;;;;;;;;;;;;;;;10.97;61.93;101848.50;4995780;28;6800;-78
2023/12/15 03:21:17;;;;;;;;;;;;;;;10.97;61.80;101848.50;5020838;28;7183;-78
2023/12/15 03:23:43;;;;;;;;;;;;;;;10.97;62.44;101851.94;4999666;28;7094;-77
2023/12/15 03:26:08;;;;;;;;;;;;;;;11.00;61.96;101847.81;4995166;28;6951;-76
2023/12/15 03:28:33;;;;;;;;;;;;;;;10.99;61.95;101849.50;5000110;28;6998;-78
2023/12/15 03:30:59;;;;;;;;;;;;;;;11.00;61.98;101855.50;4996860;28;6768;-77
2023/12/15 03:33:27;;;;;;;;;;;;;;;11.00;62.32;101855.50;4993188;28;6844;-77
2023/12/15 03:35:53;;;;;;;;;;;;;;;11.03;61.66;101863.44;5007729;28;7233;-76
2023/12/15 03:38:19;;;;;;;;;;;;;;;11.05;62.01;101877.25;5016106;28;6764;-77
2023/12/15 03:40:45;;;;;;;;;;;;;;;11.04;62.21;101871.22;5020907;28;6783;-76
2023/12/15 03:43:10;;;;;;;;;;;;;;;11.04;61.66;101876.34;5008737;28;6984;-77
2023/12/15 03:45:36;;;;;;;;;;;;;;;11.04;61.49;101878.91;4996656;28;7022;-76
2023/12/15 03:48:01;;;;;;;;;;;;;;;11.03;61.53;101882.28;4978343;28;6772;-76
2023/12/15 03:50:27;;;;;;;;;;;;;;;11.00;62.01;101884.63;4985091;28;6792;-77
2023/12/15 03:52:52;;;;;;;;;;;;;;;10.98;61.73;101892.22;4983746;28;6983;-74
2023/12/15 03:55:18;;;;;;;;;;;;;;;10.98;61.71;101886.22;4980042;28;6963;-74
2023/12/15 03:57:43;;;;;;;;;;;;;;;10.95;61.72;101897.13;4974963;28;8540;-75
2023/12/15 04:00:09;;;;;;;;;;;;;;;10.93;62.14;101898.72;4963422;28;6972;-74
2023/12/15 04:02:35;;;;;;;;;;;;;;;10.92;61.76;101909.75;4974682;28;6914;-74
2023/12/15 04:05:00;;;;;;;;;;;;;;;10.92;62.46;101922.59;4979714;28;7265;-76
2023/12/15 04:07:26;;;;;;;;;;;;;;;10.92;62.34;101925.16;4979338;28;6957;-75
2023/12/15 04:09:51;;;;;;;;;;;;;;;10.93;62.31;101931.16;5000979;28;7188;-75
2023/12/15 04:12:17;;;;;;;;;;;;;;;10.95;62.37;101938.19;4979542;28;7194;-74
2023/12/15 04:14:43;;;;;;;;;;;;;;;10.95;62.36;101933.06;4999046;28;6779;-73
2023/12/15 04:17:08;;;;;;;;;;;;;;;10.96;62.29;101944.19;4997596;28;7433;-75
2023/12/15 04:19:34;;;;;;;;;;;;;;;10.94;62.35;101941.53;4986427;28;6792;-75
2023/12/15 04:21:59;;;;;;;;;;;;;;;10.94;62.05;101945.75;4981204;28;7145;-73
2023/12/15 04:24:25;;;;;;;;;;;;;;;10.94;62.21;101941.53;4980611;28;6792;-75
2023/12/15 04:26:52;;;;;;;;;;;;;;;10.95;62.43;101953.56;4976721;28;6776;-74
2023/12/15 04:29:18;;;;;;;;;;;;;;;10.94;62.05;101944.09;4980912;28;6968;-74
2023/12/15 04:31:44;;;;;;;;;;;;;;;10.94;62.54;101949.22;4974684;28;6969;-74
2023/12/15 04:34:09;;;;;;;;;;;;;;;10.95;62.68;101955.22;4991722;28;6978;-73
2023/12/15 04:36:35;;;;;;;;;;;;;;;10.95;62.34;101951.00;4978864;28;6788;-76
2023/12/15 04:39:00;;;;;;;;;;;;;;;10.96;62.43;101950.22;4982762;28;6775;-74
2023/12/15 04:41:27;;;;;;;;;;;;;;;10.95;62.23;101948.44;4977432;28;8196;-74
2023/12/15 04:43:53;;;;;;;;;;;;;;;10.96;62.61;101960.50;4973537;28;7173;-75
2023/12/15 04:46:28;;;;;;;;;;;;;;;10.98;62.79;101960.59;4994976;28;6849;-74
2023/12/15 04:48:55;;;;;;;;;;;;;;;10.97;62.52;101967.41;4976618;28;6984;-74
2023/12/15 04:51:21;;;;;;;;;;;;;;;10.97;62.79;101961.41;4967810;28;6994;-75
2023/12/15 04:53:48;;;;;;;;;;;;;;;10.96;62.67;101970.75;4976986;28;6984;-74
2023/12/15 04:56:13;;;;;;;;;;;;;;;10.98;63.21;101969.19;4974806;28;7049;-75
2023/12/15 04:58:39;;;;;;;;;;;;;;;10.98;62.82;101974.31;4954727;28;7003;-80
2023/12/15 05:01:05;;;;;;;;;;;;;;;10.98;62.77;101976.00;4972299;28;7325;-78
2023/12/15 05:03:33;;;;;;;;;;;;;;;10.97;62.47;101977.66;4974663;28;7122;-80
2023/12/15 05:05:59;;;;;;;;;;;;;;;10.97;62.98;101972.53;4979050;28;6808;-77
2023/12/15 05:08:25;;;;;;;;;;;;;;;10.97;62.96;101963.97;4971788;28;6963;-77
2023/12/15 05:10:50;;;;;;;;;;;;;;;10.99;62.81;101970.09;4970671;28;6940;-78
2023/12/15 05:13:16;;;;;;;;;;;;;;;11.00;63.04;101970.97;4975857;28;7280;-80
2023/12/15 05:15:41;;;;;;;;;;;;;;;11.02;62.88;101969.41;4966634;28;6779;-79
2023/12/15 05:18:06;;;;;;;;;;;;;;;11.04;63.03;101970.41;4973192;28;6784;-80
2023/12/15 05:20:36;;;;;;;;;;;;;;;11.07;63.11;101973.19;4970034;28;6780;-79
2023/12/15 05:23:04;;;;;;;;;;;;;;;11.08;63.05;101978.44;4975412;28;6796;-77
2023/12/15 05:25:31;;;;;;;;;;;;;;;11.10;62.98;101975.97;4979761;28;6820;-80
2023/12/15 05:27:56;;;;;;;;;;;;;;;11.13;62.92;101983.91;4975740;28;6798;-78
2023/12/15 05:30:22;;;;;;;;;;;;;;;11.14;62.79;101983.13;4980128;28;7332;-80
2023/12/15 05:32:47;;;;;;;;;;;;;;;11.15;62.58;101977.19;4969585;28;6784;-78
2023/12/15 05:35:13;;;;;;;;;;;;;;;11.16;63.17;101986.66;4970249;28;6780;-80
2023/12/15 05:37:39;;;;;;;;;;;;;;;11.18;62.83;101982.53;4952672;28;7001;-78
2023/12/15 05:40:05;;;;;;;;;;;;;;;11.22;63.05;101983.66;4970935;28;6781;-78
2023/12/15 05:42:30;;;;;;;;;;;;;;;11.25;63.05;101999.25;4974869;28;8086;-80
2023/12/15 05:44:56;;;;;;;;;;;;;;;11.25;62.78;102000.16;4975322;28;8412;-79
2023/12/15 05:47:21;;;;;;;;;;;;;;;11.28;62.94;102007.19;4979215;28;6973;-80
2023/12/15 05:49:47;;;;;;;;;;;;;;;11.31;62.68;102009.97;4975915;28;7953;-81
2023/12/15 05:52:14;;;;;;;;;;;;;;;11.33;62.57;102003.25;4975424;28;6808;-79
2023/12/15 05:54:39;;;;;;;;;;;;;;;11.37;63.09;102009.50;4972880;28;6807;-80
2023/12/15 05:57:05;;;;;;;;;;;;;;;11.37;63.06;102018.09;4970177;28;7238;-80
2023/12/15 05:59:30;;;;;;;;;;;;;;;11.37;62.93;102018.09;4972565;28;6958;-80
2023/12/15 06:01:56;;;;;;;;;;;;;;;11.38;63.18;102016.41;4979569;28;7006;-80
2023/12/15 06:04:21;;;;;;;;;;;;;;;11.39;62.34;102029.38;4977983;28;6808;-79
2023/12/15 06:06:47;;;;;;;;;;;;;;;11.42;62.94;102028.69;4986859;28;7904;-77
2023/12/15 06:09:12;;;;;;;;;;;;;;;11.43;62.57;102030.50;4976174;28;6936;-75
2023/12/15 06:11:42;;;;;;;;;;;;;;;11.44;62.95;102032.25;4983307;28;6970;-73
2023/12/15 06:14:08;;;;;;;;;;;;;;;11.46;63.15;102029.81;4999074;28;6820;-74
2023/12/15 06:16:34;;;;;;;;;;;;;;;11.47;62.68;102031.59;4980715;28;6999;-74
2023/12/15 06:19:00;;;;;;;;;;;;;;;11.48;62.64;102028.25;4983835;28;7455;-74
2023/12/15 06:21:26;;;;;;;;;;;;;;;11.48;62.53;102034.25;4994347;28;7034;-74
2023/12/15 06:23:52;;;;;;;;;;;;;;;11.48;62.90;102048.78;4966386;28;7594;-75
2023/12/15 06:26:23;;;;;;;;;;;;;;;11.48;63.04;102052.22;4979902;28;7018;-76
2023/12/15 06:28:49;;;;;;;;;;;;;;;11.47;62.71;102041.88;4976804;28;6812;-74
2023/12/15 06:31:15;;;;;;;;;;;;;;;11.46;63.06;102046.09;4981180;28;6799;-73
2023/12/15 06:33:41;;;;;;;;;;;;;;;11.47;63.16;102045.31;4963814;28;6966;-74
2023/12/15 06:36:07;;;;;;;;;;;;;;;11.47;63.44;102055.56;4974856;28;6871;-73
2023/12/15 06:38:39;;;;;;;;;;;;;;;11.48;63.18;102059.06;4978269;28;6871;-76
2023/12/15 06:41:05;;;;;;;;;;;;;;;11.49;63.31;102059.19;4975461;28;6984;-74
2023/12/15 06:43:32;;;;;;;;;;;;;;;11.52;62.80;102069.66;4978553;28;6832;-75
2023/12/15 06:45:57;;;;;;;;;;;;;;;11.55;62.85;102066.41;4966267;28;7712;-77
2023/12/15 06:48:23;;;;;;;;;;;;;;;11.56;62.70;102057.94;4960958;28;6844;-74
2023/12/15 06:50:48;;;;;;;;;;;;;;;11.56;62.89;102055.34;4989005;28;7757;-74
2023/12/15 06:53:13;;;;;;;;;;;;;;;11.56;63.48;102060.50;4976894;28;6859;-75
2023/12/15 06:55:39;;;;;;;;;;;;;;;11.57;63.16;102057.13;4992064;28;7237;-73
2023/12/15 06:58:04;;;;;;;;;;;;;;;11.56;62.80;102064.72;4957350;28;6974;-75
2023/12/15 07:00:30;;;;;;;;;;;;;;;11.54;62.83;102067.19;4979810;28;6796;-75
2023/12/15 07:02:56;;;;;;;;;;;;;;;11.51;63.31;102070.44;4991293;28;7039;-76
2023/12/15 07:05:22;;;;;;;;;;;;;;;11.49;62.79;102078.81;4970648;28;7154;-77
2023/12/15 07:07:47;;;;;;;;;;;;;;;11.47;63.10;102088.97;5001206;28;7276;-74
2023/12/15 07:10:13;;;;;;;;;;;;;;;11.46;62.99;102087.19;4986869;28;6788;-73
2023/12/15 07:12:38;;;;;;;;;;;;;;;11.46;62.89;102092.31;4962181;28;7225;-75
2023/12/15 07:15:04;;;;;;;;;;;;;;;11.46;62.96;102100.00;4981440;28;7198;-75
2023/12/15 07:17:30;;;;;;;;;;;;;;;11.49;63.38;102107.06;4985022;28;6975;-75
2023/12/15 07:19:56;;;;;;;;;;;;;;;11.51;63.65;102098.69;4959734;28;6806;-75
2023/12/15 07:22:21;;;;;;;;;;;;;;;11.55;62.85;102110.06;5000846;28;6956;-74
2023/12/15 07:24:47;;;;;;;;;;;;;;;11.60;63.22;102115.53;4983932;28;6792;-74
2023/12/15 07:27:13;;;;;;;;;;;;;;;11.63;63.25;102120.88;4982448;28;7266;-75
2023/12/15 07:29:40;;;;;;;;;;;;;;;11.66;63.21;102121.09;4963719;28;7141;-73
2023/12/15 07:32:05;;;;;;;;;;;;;;;11.68;62.94;102116.94;4985443;28;6973;-75
2023/12/15 07:34:31;;;;;;;;;;;;;;;11.70;62.94;102117.97;4980910;28;6945;-74
2023/12/15 07:36:56;;;;;;;;;;;;;;;11.71;63.19;102127.47;4979585;28;6796;-75
2023/12/15 07:39:22;;;;;;;;;;;;;;;11.71;63.09;102131.69;4985214;28;6961;-74
2023/12/15 07:41:48;;;;;;;;;;;;;;;11.71;63.23;102135.16;4960850;28;6956;-75
2023/12/15 07:44:16;;;;;;;;;;;;;;;11.70;63.24;102135.94;4983968;28;7472;-75
2023/12/15 07:46:43;;;;;;;;;;;;;;;11.68;63.10;102145.19;4979482;28;6978;-74
2023/12/15 07:49:09;;;;;;;;;;;;;;;11.69;63.37;102149.59;4981233;28;6954;-74
2023/12/15 07:51:35;;;;;;;;;;;;;;;11.71;63.43;102157.38;4980435;28;6969;-74
2023/12/15 07:54:00;;;;;;;;;;;;;;;11.72;63.13;102159.16;4999648;28;6795;-75
2023/12/15 07:56:27;;;;;;;;;;;;;;;11.75;62.92;102165.41;4975602;28;6810;-74
2023/12/15 07:58:54;;;;;;;;;;;;;;;11.78;63.07;102165.66;4984237;28;7014;-77
2023/12/15 08:01:21;;;;;;;;;;;;;;;11.82;63.39;102164.16;4999344;28;7695;-76
2023/12/15 08:03:47;;;;;;;;;;;;;;;11.86;62.98;102161.03;4969234;28;6994;-75
2023/12/15 08:06:15;;;;;;;;;;;;;;;11.86;62.73;102155.91;4971533;28;6975;-75
2023/12/15 08:08:41;;;;;;;;;;;;;;;11.87;63.05;102156.78;4978127;28;6807;-74
2023/12/15 08:11:07;;;;;;;;;;;;;;;11.87;63.44;102173.09;4956515;28;7068;-74
2023/12/15 08:13:32;;;;;;;;;;;;;;;11.88;63.33;102171.41;4965614;28;7908;-75
2023/12/15 08:15:58;;;;;;;;;;;;;;;11.90;63.31;102175.88;4983199;28;6955;-74
2023/12/15 08:18:23;;;;;;;;;;;;;;;11.93;63.14;102177.78;4958600;28;7021;-76
2023/12/15 08:20:50;;;;;;;;;;;;;;;11.96;62.99;102185.69;4984280;28;7001;-74
2023/12/15 08:23:15;;;;;;;;;;;;;;;11.99;62.82;102195.31;4978384;28;6888;-74
2023/12/15 08:25:42;;;;;;;;;;;;;;;12.01;62.78;102192.06;4981002;28;7106;-75
2023/12/15 08:28:10;;;;;;;;;;;;;;;12.03;62.60;102197.38;4978475;28;6792;-81
2023/12/15 08:30:35;;;;;;;;;;;;;;;12.05;63.41;102203.50;4980616;28;6799;-81
2023/12/15 08:33:01;;;;;;;;;;;;;;;12.08;62.68;102217.47;4965364;28;7121;-77
2023/12/15 08:35:27;;;;;;;;;;;;;;;12.11;62.94;102208.19;4977498;28;9486;-80
2023/12/15 08:37:54;;;;;;;;;;;;;;;12.13;62.58;102211.75;4990137;28;6803;-81
2023/12/15 08:40:20;;;;;;;;;;;;;;;12.13;63.12;102204.94;4979703;28;6870;-78
2023/12/15 08:42:45;;;;;;;;;;;;;;;12.14;63.05;102210.97;4993260;28;7840;-80
2023/12/15 08:45:11;;;;;;;;;;;;;;;12.14;63.31;102218.66;4974512;28;6966;-80
2023/12/15 08:47:36;;;;;;;;;;;;;;;12.16;62.68;102227.38;4956190;28;6965;-77
2023/12/15 08:50:02;;;;;;;;;;;;;;;12.20;63.07;102234.53;5018852;23;6787;-78
2023/12/15 08:52:28;;;;;;;;;;;;;;;12.22;63.51;102246.72;4985926;28;6970;-79
2023/12/15 08:54:53;;;;;;;;;;;;;;;12.24;63.32;102251.94;4985523;28;6849;-80
2023/12/15 08:57:19;;;;;;;;;;;;;;;12.27;63.03;102261.56;4987219;28;7337;-80
2023/12/15 08:59:45;;;;;;;;;;;;;;;12.29;62.60;102265.13;4970805;28;6795;-80
2023/12/15 09:02:12;;;;;;;;;;;;;;;12.30;62.70;102266.91;4969536;28;7204;-80
2023/12/15 09:04:37;;;;;;;;;;;;;;;12.31;63.55;102272.19;4973388;28;7244;-80
2023/12/15 09:07:03;;;;;;;;;;;;;;;12.33;62.81;102273.16;4973267;28;7135;-79
2023/12/15 09:09:29;;;;;;;;;;;;;;;12.35;63.28;102279.31;4989229;28;6958;-79
2023/12/15 09:11:54;;;;;;;;;;;;;;;12.36;63.05;102277.66;4971447;28;6780;-80
2023/12/15 09:14:21;;;;;;;;;;;;;;;12.38;62.62;102291.50;4971342;28;7228;-80
2023/12/15 09:16:47;;;;;;;;;;;;;;;12.38;63.15;102288.94;4985338;28;9102;-79
2023/12/15 09:19:13;;;;;;;;;;;;;;;12.38;62.42;102306.94;4983695;28;7059;-79
2023/12/15 09:21:39;;;;;;;;;;;;;;;12.39;62.68;102307.84;4972170;28;8007;-80
2023/12/15 09:24:04;;;;;;;;;;;;;;;12.38;63.21;102312.06;4971791;28;6780;-79
2023/12/15 09:26:30;;;;;;;;;;;;;;;12.38;62.66;102309.50;4972858;28;6788;-80
2023/12/15 09:28:56;;;;;;;;;;;;;;;12.39;62.74;102310.41;4989620;28;6779;-79
2023/12/15 09:31:21;;;;;;;;;;;;;;;12.38;62.53;102316.34;4966988;28;6953;-80
2023/12/15 09:33:47;;;;;;;;;;;;;;;12.40;62.65;102312.19;4972729;28;6787;-79
2023/12/15 09:36:13;;;;;;;;;;;;;;;12.42;62.96;102320.91;4970736;28;6779;-80
2023/12/15 09:38:38;;;;;;;;;;;;;;;12.44;62.78;102317.66;4973190;28;6796;-76
2023/12/15 09:41:04;;;;;;;;;;;;;;;12.46;62.72;102320.34;4971706;28;6788;-76
2023/12/15 09:43:29;;;;;;;;;;;;;;;12.48;63.26;102313.63;4970308;28;6783;-75
2023/12/15 09:45:59;;;;;;;;;;;;;;;12.50;63.71;102332.63;4983681;28;7447;-75
2023/12/15 09:48:27;;;;;;;;;;;;;;;12.56;62.88;102335.66;4987153;28;6808;-75
2023/12/15 09:50:56;;;;;;;;;;;;;;;12.61;63.17;102336.84;4970578;28;7103;-76
2023/12/15 09:53:22;;;;;;;;;;;;;;;12.66;63.51;102339.75;4953270;28;7128;-75
2023/12/15 09:55:50;;;;;;;;;;;;;;;12.70;62.85;102335.72;4950880;28;6804;-75
2023/12/15 09:58:16;;;;;;;;;;;;;;;12.75;63.15;102335.25;4967155;28;7003;-75
2023/12/15 10:00:42;;;;;;;;;;;;;;;12.80;63.47;102340.72;4998496;23;7878;-75
2023/12/15 10:03:07;;;;;;;;;;;;;;;12.86;63.39;102346.31;4947299;28;7216;-75
2023/12/15 10:05:34;;;;;;;;;;;;;;;12.95;62.50;102340.00;5048865;23;6780;-76
2023/12/15 10:08:00;;;;;;;;;;;;;;;12.98;62.46;102343.66;5020926;28;6803;-76
2023/12/15 10:10:29;;;;;;;;;;;;;;;13.02;63.12;102344.78;5011821;28;10015;-76
2023/12/15 10:12:56;;;;;;;;;;;;;;;13.05;63.32;102350.16;5032701;28;7276;-76
2023/12/15 10:15:21;;;;;;;;;;;;;;;13.10;63.07;102356.50;5019652;28;6973;-75
2023/12/15 10:17:48;;;;;;;;;;;;;;;13.13;62.96;102367.00;5028625;28;6795;-76
2023/12/15 10:20:16;;;;;;;;;;;;;;;13.17;63.02;102368.09;5015027;28;6841;-76
2023/12/15 10:22:41;;;;;;;;;;;;;;;13.19;63.26;102370.00;5021256;28;6812;-75
2023/12/15 10:25:16;;;;;;;;;;;;;;;13.22;63.56;102371.00;5021532;28;6964;-76
2023/12/15 10:27:42;;;;;;;;;;;;;;;13.27;62.74;102377.38;5031265;28;7043;-75
2023/12/15 10:30:08;;;;;;;;;;;;;;;13.31;62.77;102381.94;5031157;28;6959;-75
2023/12/15 10:32:33;;;;;;;;;;;;;;;13.36;62.89;102377.09;5009954;28;7383;-75
2023/12/15 10:35:00;;;;;;;;;;;;;;;13.40;62.85;102374.84;5022025;28;6783;-75
2023/12/15 10:37:27;;;;;;;;;;;;;;;13.42;62.18;102373.28;5019282;28;6796;-75
2023/12/15 10:39:54;;;;;;;;;;;;;;;13.46;62.76;102377.88;5032187;28;7170;-76
2023/12/15 10:42:21;;;;;;;;;;;;;;;13.50;62.31;102372.91;5030016;28;6799;-76
2023/12/15 10:44:48;;;;;;;;;;;;;;;13.54;62.77;102377.50;5014306;28;7238;-76
2023/12/15 10:47:14;;;;;;;;;;;;;;;13.61;62.18;102384.81;5017770;28;6808;-76
2023/12/15 10:49:41;;;;;;;;;;;;;;;13.63;61.64;102380.69;5025687;28;8623;-75
2023/12/15 10:52:07;;;;;;;;;;;;;;;13.66;62.28;102387.72;5018754;28;6838;-75
2023/12/15 10:54:34;;;;;;;;;;;;;;;13.69;61.65;102400.81;5035557;28;6832;-74
2023/12/15 10:56:59;;;;;;;;;;;;;;;13.71;62.24;102401.81;5020513;28;7953;-74
2023/12/15 10:59:27;;;;;;;;;;;;;;;13.72;61.62;102396.78;5024352;28;6929;-75
2023/12/15 11:01:53;;;;;;;;;;;;;;;13.72;62.04;102394.19;5009629;28;6992;-75
2023/12/15 11:04:23;;;;;;;;;;;;;;;13.75;61.21;102396.06;5014831;28;7202;-75
2023/12/15 11:06:48;;;;;;;;;;;;;;;13.73;61.90;102401.13;5031387;28;7159;-75
2023/12/15 11:09:27;;;;;;;;;;;;;;;13.74;61.20;102410.66;5008411;28;8403;-74
2023/12/15 11:12:32;;;;;;;;;;;;;;;13.77;61.46;102420.28;5018423;28;7184;-74
2023/12/15 11:14:57;;;;;;;;;;;;;;;13.75;61.72;102430.47;5006989;28;6998;-76
2023/12/15 11:17:22;;;;;;;;;;;;;;;13.79;61.75;102446.13;5033762;28;6983;-75
2023/12/15 11:19:51;;;;;;;;;;;;;;;13.82;61.28;102442.09;5022507;28;7570;-74
2023/12/15 11:22:17;;;;;;;;;;;;;;;13.86;61.30;102440.59;5018231;28;6995;-74
2023/12/15 11:24:43;;;;;;;;;;;;;;;13.90;61.06;102440.00;5018127;28;7058;-75
2023/12/15 11:27:13;;;;;;;;;;;;;;;13.91;61.42;102439.25;5031135;28;6803;-74
2023/12/15 11:29:40;;;;;;;;;;;;;;;13.91;61.16;102436.66;5031387;28;7007;-73
2023/12/15 11:32:33;;;;;;;;;;;;;;;13.94;61.01;102442.03;5027477;28;7780;-74
2023/12/15 11:34:59;;;;;;;;;;;;;;;13.96;60.85;102447.28;5014048;28;6839;-74
2023/12/15 11:37:26;;;;;;;;;;;;;;;13.98;61.43;102448.28;5029972;28;7090;-75
2023/12/15 11:39:53;;;;;;;;;;;;;;;14.02;61.19;102452.84;5017781;28;7012;-74
2023/12/15 11:42:19;;;;;;;;;;;;;;;14.09;60.89;102461.88;5011464;23;7205;-75
2023/12/15 11:44:45;;;;;;;;;;;;;;;14.12;60.83;102465.53;4983454;28;6847;-74
2023/12/15 11:47:13;;;;;;;;;;;;;;;14.13;60.90;102464.75;4986873;28;7003;-75
2023/12/15 11:49:45;;;;;;;;;;;;;;;14.11;60.83;102458.59;4985599;28;6807;-75
2023/12/15 11:52:11;;;;;;;;;;;;;;;14.10;60.84;102468.81;4983969;28;7076;-75
2023/12/15 11:54:38;;;;;;;;;;;;;;;14.10;59.83;102461.06;4984881;28;7255;-74
2023/12/15 11:57:08;;;;;;;;;;;;;;;14.11;60.59;102460.31;4974726;28;6972;-75
2023/12/15 11:59:44;;;;;;;;;;;;;;;14.12;60.05;102468.13;4977450;28;7691;-82
2023/12/15 12:02:13;;;;;;;;;;;;;;;14.10;60.37;102464.56;4995808;28;7292;-81
2023/12/15 12:04:48;;;;;;;;;;;;;;;14.11;60.24;102470.63;4985547;28;6815;-82
2023/12/15 12:07:14;;;;;;;;;;;;;;;14.09;59.67;102474.75;4974250;28;7091;-81
2023/12/15 12:09:39;;;;;;;;;;;;;;;14.08;60.46;102472.97;4978459;28;7919;-82
2023/12/15 12:12:06;;;;;;;;;;;;;;;14.07;60.55;102460.88;4981268;28;7020;-81
2023/12/15 12:14:33;;;;;;;;;;;;;;;14.05;59.44;102459.88;4985049;28;7009;-80
2023/12/15 12:16:59;;;;;;;;;;;;;;;14.03;59.80;102452.94;4983718;28;7210;-82
2023/12/15 12:19:24;;;;;;;;;;;;;;;14.04;59.51;102453.81;4971535;28;7227;-79
2023/12/15 12:21:52;;;;;;;;;;;;;;;14.06;59.59;102449.69;4967875;28;6960;-82
2023/12/15 12:24:19;;;;;;;;;;;;;;;14.09;59.99;102436.09;4974504;28;6812;-82
2023/12/15 12:26:46;;;;;;;;;;;;;;;14.10;60.06;102428.47;4972357;28;7471;-81
2023/12/15 12:29:13;;;;;;;;;;;;;;;14.12;60.03;102432.03;4980987;28;7079;-82
2023/12/15 12:31:39;;;;;;;;;;;;;;;14.11;59.31;102429.38;4992531;28;7748;-82
2023/12/15 12:34:04;;;;;;;;;;;;;;;14.10;59.08;102425.88;4990949;28;6780;-81
2023/12/15 12:36:30;;;;;;;;;;;;;;;14.09;59.50;102421.50;4980498;28;7040;-82
2023/12/15 12:38:55;;;;;;;;;;;;;;;14.11;59.17;102425.09;5000918;28;7114;-82
2023/12/15 12:41:21;;;;;;;;;;;;;;;14.15;59.87;102426.19;4973372;28;7181;-82
2023/12/15 12:43:46;;;;;;;;;;;;;;;14.20;59.83;102427.41;4955248;28;6796;-83